Time;durP1;ratioP1;P1;durP2;ratioP2;P2;SDS_P1;SDS_P2;PMS_P1;PMS_P2;Temp;Humidity;BMP_temperature;BMP_pressure;BME280_temperature;BME280_humidity;BME280_pressure;Samples;Min_cycle;Max_cycle;Signal;HPM_P1;HPM_P2
2021/04/20 00:00:08;;;;;;;0.60;0.60;;;;;;;4.81;86.78;97004.25;29990;223;6004;-60
2021/04/20 00:00:39;;;;;;;0.60;0.60;;;;;;;4.80;86.57;97000.75;29990;202;6000;-61
2021/04/20 00:01:09;;;;;;;0.60;0.60;;;;;;;4.81;86.45;97006.94;29990;233;6004;-59
2021/04/20 00:01:40;;;;;;;0.60;0.60;;;;;;;4.82;86.58;97005.87;29990;215;6000;-59
2021/04/20 00:02:11;;;;;;;0.60;0.60;;;;;;;4.82;86.41;97005.87;29991;240;6005;-59
2021/04/20 00:02:42;;;;;;;0.60;0.60;;;;;;;4.81;86.63;97005.06;29990;219;6000;-59
2021/04/20 00:03:14;;;;;;;0.60;0.60;;;;;;;4.82;86.75;97003.19;29991;211;6005;-62
2021/04/20 00:03:45;;;;;;;0.60;0.60;;;;;;;4.79;86.35;96995.63;29991;202;6000;-60
2021/04/20 00:04:15;;;;;;;0.50;0.50;;;;;;;4.80;86.49;96998.06;29991;226;6005;-59
2021/04/20 00:04:46;;;;;;;0.60;0.60;;;;;;;4.80;86.58;97000.75;29991;203;6000;-59
2021/04/20 00:05:17;;;;;;;0.60;0.60;;;;;;;4.80;86.68;96997.25;29991;227;6004;-59
2021/04/20 00:05:48;;;;;;;0.60;0.60;;;;;;;4.80;86.67;97002.62;29991;242;6000;-59
2021/04/20 00:06:20;;;;;;;0.60;0.60;;;;;;;4.80;86.47;96998.06;29990;216;6004;-60
2021/04/20 00:06:51;;;;;;;0.60;0.60;;;;;;;4.80;86.52;96999.94;29990;261;6000;-59
2021/04/20 00:07:22;;;;;;;0.60;0.60;;;;;;;4.81;86.85;96999.69;29991;205;6004;-59
2021/04/20 00:07:53;;;;;;;0.60;0.60;;;;;;;4.82;86.89;97000.50;29991;209;6000;-59
2021/04/20 00:08:24;;;;;;;0.90;0.90;;;;;;;4.82;86.99;96997.81;29991;241;6004;-60
2021/04/20 00:08:54;;;;;;;0.60;0.60;;;;;;;4.83;86.91;96996.75;29991;222;6000;-59
2021/04/20 00:09:25;;;;;;;0.60;0.60;;;;;;;4.84;86.82;96998.37;29991;209;6005;-59
2021/04/20 00:09:55;;;;;;;0.60;0.60;;;;;;;4.84;86.65;96998.37;29989;217;6000;-59
2021/04/20 00:10:26;;;;;;;0.60;0.60;;;;;;;4.85;86.72;96995.41;29991;223;6005;-58
2021/04/20 00:10:57;;;;;;;0.60;0.60;;;;;;;4.86;86.93;96996.22;29991;218;6000;-58
2021/04/20 00:11:27;;;;;;;0.60;0.60;;;;;;;4.86;86.91;96993.53;29991;229;6005;-58
2021/04/20 00:11:58;;;;;;;0.60;0.60;;;;;;;4.85;86.86;96995.41;29991;211;6000;-59
2021/04/20 00:12:28;;;;;;;0.60;0.60;;;;;;;4.86;86.58;96997.03;29990;283;6004;-58
2021/04/20 00:13:00;;;;;;;0.60;0.60;;;;;;;4.86;86.66;96996.22;29990;219;6000;-58
2021/04/20 00:13:31;;;;;;;0.60;0.60;;;;;;;4.87;86.92;96992.47;29990;240;6004;-59
2021/04/20 00:14:03;;;;;;;0.60;0.60;;;;;;;4.87;86.75;96989.78;29991;280;6000;-58
2021/04/20 00:14:34;;;;;;;0.60;0.60;;;;;;;4.87;86.83;96995.16;29991;231;6004;-58
2021/04/20 00:15:19;;;;;;;0.60;0.60;;;;;;;4.87;86.77;96992.47;29990;214;6000;-58
2021/04/20 00:15:51;;;;;;;0.60;0.60;;;;;;;4.86;86.63;96991.66;29991;232;6004;-59
2021/04/20 00:16:22;;;;;;;0.60;0.60;;;;;;;4.86;86.61;96990.84;29990;218;6000;-59
2021/04/20 00:16:53;;;;;;;0.60;0.60;;;;;;;4.84;86.81;96993.00;29990;224;6005;-58
2021/04/20 00:17:23;;;;;;;0.60;0.60;;;;;;;4.81;86.65;96990.81;29990;204;6000;-57
2021/04/20 00:17:56;;;;;;;0.60;0.60;;;;;;;4.78;86.64;96988.63;29990;224;6005;-58
2021/04/20 00:18:27;;;;;;;0.60;0.60;;;;;;;4.73;86.88;96992.06;29991;326;6000;-58
2021/04/20 00:18:57;;;;;;;0.60;0.60;;;;;;;4.70;87.01;96990.69;29990;236;6004;-59
2021/04/20 00:19:28;;;;;;;0.60;0.60;;;;;;;4.68;86.89;96983.94;29991;227;6000;-59
2021/04/20 00:19:58;;;;;;;0.60;0.60;;;;;;;4.66;86.81;96997.63;29989;213;6004;-58
2021/04/20 00:20:30;;;;;;;0.60;0.60;;;;;;;4.65;86.88;96990.63;29990;251;6000;-59
2021/04/20 00:21:00;;;;;;;0.60;0.60;;;;;;;4.64;86.92;96988.19;29990;196;6004;-58
2021/04/20 00:21:32;;;;;;;0.60;0.60;;;;;;;4.62;86.92;96991.13;29990;196;6000;-59
2021/04/20 00:22:03;;;;;;;0.60;0.60;;;;;;;4.59;86.97;96991.63;29991;225;6004;-59
2021/04/20 00:22:33;;;;;;;0.60;0.60;;;;;;;4.59;87.09;96988.94;29990;220;6000;-58
2021/04/20 00:23:06;;;;;;;0.60;0.60;;;;;;;4.58;87.28;96987.31;29991;243;6004;-58
2021/04/20 00:23:36;;;;;;;0.60;0.60;;;;;;;4.58;87.30;96984.63;29990;237;6000;-59
2021/04/20 00:24:08;;;;;;;0.60;0.60;;;;;;;4.57;87.23;96988.38;29991;224;6005;-59
2021/04/20 00:24:39;;;;;;;0.60;0.60;;;;;;;4.57;87.02;96988.38;29990;224;6000;-58
2021/04/20 00:25:12;;;;;;;0.60;0.60;;;;;;;4.57;87.20;96987.56;29991;251;6005;-58
2021/04/20 00:25:43;;;;;;;0.60;0.60;;;;;;;4.55;87.11;96979.75;29991;253;6000;-57
2021/04/20 00:26:13;;;;;;;0.60;0.60;;;;;;;4.56;87.42;96985.94;29991;231;6005;-58
2021/04/20 00:26:44;;;;;;;0.60;0.60;;;;;;;4.53;87.38;96976.53;29990;222;6000;-59
2021/04/20 00:27:14;;;;;;;0.60;0.60;;;;;;;4.55;87.56;96985.13;29990;220;6004;-58
2021/04/20 00:27:45;;;;;;;0.60;0.60;;;;;;;4.54;87.50;96983.50;29991;229;6000;-59
2021/04/20 00:28:23;;;;;;;0.60;0.60;;;;;;;4.53;87.69;96976.53;29991;196;6004;-59
2021/04/20 00:28:54;;;;;;;0.60;0.60;;;;;;;4.52;87.46;96976.78;29989;224;6000;-60
2021/04/20 00:29:25;;;;;;;0.60;0.60;;;;;;;4.52;87.50;96982.94;29991;213;6004;-58
2021/04/20 00:29:56;;;;;;;0.60;0.60;;;;;;;4.51;87.44;96978.66;29990;251;6000;-58
2021/04/20 00:30:26;;;;;;;0.60;0.60;;;;;;;4.51;87.76;96975.16;29990;235;6004;-59
2021/04/20 00:30:57;;;;;;;0.60;0.60;;;;;;;4.52;87.62;96979.47;29991;232;6000;-58
2021/04/20 00:31:27;;;;;;;0.60;0.60;;;;;;;4.52;87.78;96979.47;29990;289;6005;-57
2021/04/20 00:32:01;;;;;;;0.60;0.60;;;;;;;4.54;87.79;96978.13;29990;234;6000;-58
2021/04/20 00:32:32;;;;;;;0.60;0.60;;;;;;;4.55;87.86;96978.97;29991;231;6005;-59
2021/04/20 00:33:04;;;;;;;0.60;0.60;;;;;;;4.57;87.74;96983.00;29990;216;6000;-58
2021/04/20 00:33:34;;;;;;;0.60;0.60;;;;;;;4.58;87.71;96979.25;29990;266;6005;-58
2021/04/20 00:34:05;;;;;;;0.60;0.60;;;;;;;4.59;87.69;96986.25;29990;202;6000;-59
2021/04/20 00:34:36;;;;;;;0.60;0.60;;;;;;;4.59;87.57;96980.88;29990;197;6004;-59
2021/04/20 00:35:08;;;;;;;0.60;0.60;;;;;;;4.61;87.47;96980.63;29991;240;6000;-58
2021/04/20 00:35:39;;;;;;;0.60;0.60;;;;;;;4.61;87.48;96984.13;29991;235;6004;-60
2021/04/20 00:36:10;;;;;;;0.60;0.60;;;;;;;4.60;87.59;96981.69;29991;217;6000;-60
2021/04/20 00:36:40;;;;;;;0.60;0.60;;;;;;;4.60;87.60;96977.13;29991;229;6004;-58
2021/04/20 00:37:11;;;;;;;0.60;0.60;;;;;;;4.60;87.59;96982.50;29990;198;6000;-59
2021/04/20 00:37:42;;;;;;;0.60;0.60;;;;;;;4.59;87.69;96980.88;29991;211;6004;-59
2021/04/20 00:38:13;;;;;;;0.60;0.60;;;;;;;4.59;87.64;96988.13;29991;199;6000;-58
2021/04/20 00:38:44;;;;;;;0.60;0.60;;;;;;;4.57;87.43;96977.63;29989;222;6004;-58
2021/04/20 00:39:15;;;;;;;0.60;0.60;;;;;;;4.57;87.76;96983.00;29991;216;6000;-58
2021/04/20 00:39:45;;;;;;;0.60;0.60;;;;;;;4.56;87.41;96989.44;29990;244;6005;-59
2021/04/20 00:40:18;;;;;;;0.60;0.60;;;;;;;4.55;87.34;96985.13;29991;269;6000;-59
2021/04/20 00:40:52;;;;;;;0.60;0.60;;;;;;;4.52;87.24;96974.91;29990;206;6005;-58
2021/04/20 00:41:24;;;;;;;0.60;0.60;;;;;;;4.51;87.49;96975.97;29991;216;6000;-58
2021/04/20 00:42:04;;;;;;;0.60;0.60;;;;;;;4.48;87.46;96973.81;29990;197;6004;-58
2021/04/20 00:42:57;;;;;;;0.60;0.60;;;;;;;4.43;87.46;96975.63;29990;219;6000;-59
2021/04/20 00:43:36;;;;;;;0.60;0.60;;;;;;;4.43;87.70;96975.63;29990;210;6004;-59
2021/04/20 00:44:06;;;;;;;0.60;0.60;;;;;;;4.43;87.42;96981.81;29990;287;6000;-59
2021/04/20 00:44:37;;;;;;;0.60;0.60;;;;;;;4.43;87.46;96971.06;29991;233;6004;-58
2021/04/20 00:45:09;;;;;;;0.62;0.62;;;;;;;4.45;87.36;96974.31;29991;216;6000;-58
2021/04/20 00:45:40;;;;;;;0.60;0.60;;;;;;;4.44;87.39;96975.37;29990;216;6004;-58
2021/04/20 00:46:14;;;;;;;0.60;0.60;;;;;;;4.45;87.34;96978.88;29991;288;6000;-59
2021/04/20 00:46:45;;;;;;;0.60;0.60;;;;;;;4.44;87.46;96971.88;29990;202;6009;-59
2021/04/20 00:47:15;;;;;;;0.60;0.60;;;;;;;4.42;87.48;96980.19;29990;253;6000;-59
2021/04/20 00:47:46;;;;;;;0.60;0.60;;;;;;;4.40;87.24;96970.75;29990;204;6005;-59
2021/04/20 00:48:17;;;;;;;0.60;0.60;;;;;;;4.38;87.33;96973.69;29990;197;6000;-58
2021/04/20 00:48:48;;;;;;;1.30;1.30;;;;;;;4.37;87.44;96972.06;29990;229;6005;-58
2021/04/20 00:49:19;;;;;;;0.60;0.60;;;;;;;4.36;87.25;96965.06;29991;220;6000;-59
2021/04/20 00:49:50;;;;;;;0.60;0.60;;;;;;;4.34;87.31;96962.63;29991;208;6004;-59
2021/04/20 00:50:26;;;;;;;0.60;0.60;;;;;;;4.35;87.72;96963.44;29990;314;6000;-58
2021/04/20 00:50:56;;;;;;;0.60;0.60;;;;;;;4.35;87.80;96968.81;29990;260;6018;-58
2021/04/20 00:51:27;;;;;;;0.60;0.60;;;;;;;4.36;87.65;96965.06;29991;209;6000;-58
2021/04/20 00:51:58;;;;;;;0.60;0.60;;;;;;;4.37;87.45;96972.06;29990;263;6004;-59
2021/04/20 00:52:29;;;;;;;0.60;0.60;;;;;;;4.36;87.54;96965.88;29990;237;6000;-58
2021/04/20 00:52:59;;;;;;;0.60;0.60;;;;;;;4.38;87.37;96962.94;29990;343;6004;-58
2021/04/20 00:53:31;;;;;;;0.60;0.60;;;;;;;4.41;87.39;96967.81;29990;204;6000;-59
2021/04/20 00:54:03;;;;;;;0.60;0.60;;;;;;;4.44;87.39;96961.13;29990;236;6005;-59
2021/04/20 00:54:35;;;;;;;0.60;0.60;;;;;;;4.44;87.68;96964.62;29990;197;6000;-58
2021/04/20 00:55:08;;;;;;;0.60;0.60;;;;;;;4.46;87.64;96964.38;29991;199;6005;-58
2021/04/20 00:55:39;;;;;;;0.60;0.60;;;;;;;4.47;87.56;96961.44;29990;221;6000;-58
2021/04/20 00:56:10;;;;;;;0.60;0.60;;;;;;;4.48;87.40;96968.44;29991;225;6005;-58
2021/04/20 00:56:40;;;;;;;0.60;0.60;;;;;;;4.48;87.67;96963.06;29990;283;6000;-59
2021/04/20 00:57:11;;;;;;;0.60;0.60;;;;;;;4.49;87.46;96964.69;29991;229;6000;-59
2021/04/20 00:57:41;;;;;;;0.60;0.60;;;;;;;4.49;87.74;96958.50;29990;218;6000;-58
2021/04/20 00:58:14;;;;;;;0.60;0.60;;;;;;;4.49;87.55;96964.69;29990;197;6004;-59
2021/04/20 00:58:46;;;;;;;0.60;0.60;;;;;;;4.49;87.60;96962.00;29991;213;6000;-60
2021/04/20 00:59:17;;;;;;;0.70;0.70;;;;;;;4.49;87.69;96959.31;29991;254;6004;-59
2021/04/20 00:59:48;;;;;;;0.60;0.60;;;;;;;4.50;87.60;96966.31;29990;215;6000;-59
2021/04/20 01:00:28;;;;;;;0.70;0.70;;;;;;;4.51;87.43;96962.53;29990;272;6004;-58
2021/04/20 01:00:59;;;;;;;0.65;0.65;;;;;;;4.49;87.44;96959.31;29990;248;6009;-58
2021/04/20 01:01:31;;;;;;;0.60;0.60;;;;;;;4.49;87.44;96959.31;29990;224;6005;-59
2021/04/20 01:02:02;;;;;;;0.60;0.60;;;;;;;4.51;87.41;96967.91;29990;232;6000;-59
2021/04/20 01:02:32;;;;;;;0.60;0.60;;;;;;;4.51;87.44;96959.84;29989;260;6005;-58
2021/04/20 01:03:03;;;;;;;0.60;0.60;;;;;;;4.51;87.53;96962.53;29991;246;6000;-58
2021/04/20 01:03:34;;;;;;;0.70;0.70;;;;;;;4.51;87.35;96959.84;29991;228;6005;-58
2021/04/20 01:04:09;;;;;;;0.65;0.65;;;;;;;4.51;87.34;96962.53;29991;203;6000;-59
2021/04/20 01:04:40;;;;;;;0.70;0.70;;;;;;;4.51;87.33;96962.53;29990;213;6004;-60
2021/04/20 01:05:14;;;;;;;0.70;0.70;;;;;;;4.52;87.32;96960.66;29991;203;6000;-59
2021/04/20 01:05:46;;;;;;;0.68;0.68;;;;;;;4.51;87.55;96957.16;29990;224;6004;-58
2021/04/20 01:06:17;;;;;;;0.70;0.70;;;;;;;4.52;87.56;96957.97;29990;291;6000;-58
2021/04/20 01:06:49;;;;;;;0.70;0.70;;;;;;;4.52;87.74;96964.16;29990;230;6004;-62
2021/04/20 01:07:20;;;;;;;0.70;0.70;;;;;;;4.54;87.75;96962.03;29990;215;6000;-59
2021/04/20 01:07:57;;;;;;;0.70;0.70;;;;;;;4.51;87.80;96957.16;29991;293;6015;-58
2021/04/20 01:08:30;;;;;;;0.70;0.70;;;;;;;4.54;87.74;96962.03;29991;228;6000;-56
2021/04/20 01:09:03;;;;;;;0.70;0.70;;;;;;;4.55;87.78;96957.47;29990;283;6005;-59
2021/04/20 01:09:34;;;;;;;0.70;0.70;;;;;;;4.55;87.77;96963.66;29990;359;6000;-60
2021/04/20 01:10:07;;;;;;;0.60;0.60;;;;;;;4.57;87.86;96961.53;29990;236;6005;-58
2021/04/20 01:10:40;;;;;;;0.60;0.60;;;;;;;4.58;87.89;96965.03;29991;202;6000;-58
2021/04/20 01:11:12;;;;;;;0.68;0.68;;;;;;;4.57;87.84;96966.91;29990;261;6005;-60
2021/04/20 01:11:45;;;;;;;0.60;0.60;;;;;;;4.57;87.85;96966.91;29990;198;6000;-59
2021/04/20 01:12:16;;;;;;;0.60;0.60;;;;;;;4.58;88.09;96963.12;29990;202;6004;-58
2021/04/20 01:12:48;;;;;;;0.70;0.70;;;;;;;4.58;87.92;96963.12;29990;300;6000;-59
2021/04/20 01:13:23;;;;;;;0.70;0.70;;;;;;;4.57;87.96;96966.91;29990;205;6004;-58
2021/04/20 01:13:53;;;;;;;0.60;0.60;;;;;;;4.58;88.11;96963.12;29990;209;6000;-60
2021/04/20 01:14:24;;;;;;;0.60;0.60;;;;;;;4.58;88.32;96960.44;29991;197;6004;-59
2021/04/20 01:14:55;;;;;;;0.70;0.70;;;;;;;4.58;88.31;96960.44;29990;213;6000;-60
2021/04/20 01:15:26;;;;;;;0.60;0.60;;;;;;;4.59;88.25;96959.37;29990;261;6007;-59
2021/04/20 01:15:57;;;;;;;0.60;0.60;;;;;;;4.60;88.21;96960.19;29991;209;6009;-60
2021/04/20 01:16:29;;;;;;;0.60;0.60;;;;;;;4.58;88.28;96952.37;29990;219;6005;-59
2021/04/20 01:16:59;;;;;;;0.60;0.60;;;;;;;4.61;88.41;96959.94;29990;235;6010;-59
2021/04/20 01:17:30;;;;;;;0.60;0.60;;;;;;;4.62;87.99;96966.94;29990;207;6005;-59
2021/04/20 01:18:14;;;;;;;0.60;0.60;;;;;;;4.61;88.05;96951.87;29990;233;6000;-59
2021/04/20 01:18:45;;;;;;;0.60;0.60;;;;;;;4.61;88.03;96956.44;29990;268;6004;-60
2021/04/20 01:19:20;;;;;;;0.60;0.60;;;;;;;4.62;88.19;96953.50;29990;197;6000;-59
2021/04/20 01:19:52;;;;;;;0.60;0.60;;;;;;;4.62;88.10;96948.12;29989;198;6004;-59
2021/04/20 01:20:23;;;;;;;0.60;0.60;;;;;;;4.62;88.00;96956.19;29989;266;6000;-60
2021/04/20 01:21:14;;;;;;;0.60;0.60;;;;;;;4.64;87.62;96961.31;29990;202;6004;-60
2021/04/20 01:21:47;;;;;;;0.60;0.60;;;;;;;4.64;87.45;96956.75;29991;236;6000;-59
2021/04/20 01:22:19;;;;;;;0.60;0.60;;;;;;;4.64;87.53;96956.75;29991;220;6004;-59
2021/04/20 01:22:54;;;;;;;0.60;0.60;;;;;;;4.65;87.38;96953.00;29990;234;6000;-59
2021/04/20 01:24:08;;;;;;;0.65;0.65;;;;;;;4.64;87.34;96951.38;29991;210;6005;-59
2021/04/20 01:24:39;;;;;;;0.60;0.60;;;;;;;4.64;87.31;96951.38;29990;283;6000;-60
2021/04/20 01:25:12;;;;;;;0.60;0.60;;;;;;;4.63;86.96;96949.75;29990;281;6005;-60
2021/04/20 01:25:43;;;;;;;0.60;0.60;;;;;;;4.65;86.97;96955.69;29990;286;6000;-59
2021/04/20 01:26:15;;;;;;;0.60;0.60;;;;;;;4.64;86.94;96954.06;29990;233;6004;-60
2021/04/20 01:26:47;;;;;;;0.60;0.60;;;;;;;4.62;87.01;96953.50;29990;198;6000;-59
2021/04/20 01:27:17;;;;;;;0.60;0.60;;;;;;;4.62;86.90;96948.12;29991;229;6004;-59
2021/04/20 01:27:50;;;;;;;0.60;0.60;;;;;;;4.61;87.04;96945.69;29990;225;6000;-60
2021/04/20 01:28:22;;;;;;;0.60;0.60;;;;;;;4.58;86.94;96952.37;29990;199;6004;-60
2021/04/20 01:28:53;;;;;;;0.60;0.60;;;;;;;4.56;86.81;96957.19;29991;203;6000;-60
2021/04/20 01:29:24;;;;;;;0.60;0.60;;;;;;;4.55;86.76;96952.91;29991;302;6004;-59
2021/04/20 01:29:56;;;;;;;0.60;0.60;;;;;;;4.53;86.83;96946.97;29990;197;6000;-60
2021/04/20 01:30:28;;;;;;;0.60;0.60;;;;;;;4.53;87.02;96949.66;29991;270;6004;-59
2021/04/20 01:31:00;;;;;;;0.60;0.60;;;;;;;4.53;87.07;96949.66;29990;203;6000;-59
2021/04/20 01:31:33;;;;;;;0.60;0.60;;;;;;;4.51;86.88;96949.09;29989;202;6005;-59
2021/04/20 01:32:05;;;;;;;0.60;0.60;;;;;;;4.51;86.84;96945.59;29990;206;6008;-60
2021/04/20 01:32:40;;;;;;;0.60;0.60;;;;;;;4.49;86.83;96953.13;29989;234;6005;-60
2021/04/20 01:33:11;;;;;;;0.60;0.60;;;;;;;4.48;86.83;96946.13;29990;239;6000;-59
2021/04/20 01:33:42;;;;;;;0.60;0.60;;;;;;;4.49;86.92;96948.56;29990;233;6004;-59
2021/04/20 01:34:14;;;;;;;0.60;0.60;;;;;;;4.47;86.72;96947.19;29990;221;6000;-60
2021/04/20 01:34:45;;;;;;;0.60;0.60;;;;;;;4.43;86.77;96938.81;29991;227;6004;-60
2021/04/20 01:35:15;;;;;;;0.60;0.60;;;;;;;4.38;86.85;96944.94;29990;215;6000;-58
2021/04/20 01:35:46;;;;;;;0.60;0.60;;;;;;;4.38;86.76;96949.50;29990;213;6004;-59
2021/04/20 01:36:21;;;;;;;0.60;0.60;;;;;;;4.36;87.09;96943.56;29990;261;6009;-59
2021/04/20 01:36:52;;;;;;;0.60;0.60;;;;;;;4.32;86.94;96945.13;29990;317;6004;-59
2021/04/20 01:37:23;;;;;;;0.60;0.60;;;;;;;4.28;86.74;96944.00;29990;224;6000;-59
2021/04/20 01:37:54;;;;;;;0.60;0.60;;;;;;;4.25;87.12;96953.38;29990;236;6004;-59
2021/04/20 01:38:28;;;;;;;0.60;0.60;;;;;;;4.23;87.02;96955.50;29990;225;6000;-58
2021/04/20 01:39:00;;;;;;;0.60;0.60;;;;;;;4.21;86.96;96946.88;29990;293;6009;-59
2021/04/20 01:39:30;;;;;;;0.60;0.60;;;;;;;4.22;87.15;96947.69;29990;314;6000;-59
2021/04/20 01:40:02;;;;;;;0.60;0.60;;;;;;;4.24;87.13;96956.31;29991;202;6005;-59
2021/04/20 01:40:34;;;;;;;0.60;0.60;;;;;;;4.24;87.31;96956.31;29990;209;6000;-59
2021/04/20 01:41:05;;;;;;;0.60;0.60;;;;;;;4.23;86.93;96949.31;29991;242;6004;-58
2021/04/20 01:41:36;;;;;;;0.60;0.60;;;;;;;4.21;87.33;96951.44;29990;229;6000;-59
2021/04/20 01:42:08;;;;;;;0.60;0.60;;;;;;;4.18;86.85;96958.13;29990;205;6004;-59
2021/04/20 01:42:40;;;;;;;0.60;0.60;;;;;;;4.18;87.04;96957.31;29990;197;6000;-59
2021/04/20 01:43:13;;;;;;;0.60;0.60;;;;;;;4.15;87.14;96955.16;29990;236;6004;-59
2021/04/20 01:43:46;;;;;;;0.60;0.60;;;;;;;4.12;87.29;96952.97;29990;218;6000;-59
2021/04/20 01:44:16;;;;;;;0.90;0.90;;;;;;;4.10;87.31;96955.09;29990;220;6004;-60
2021/04/20 01:44:47;;;;;;;0.60;0.60;;;;;;;4.10;87.27;96961.25;29990;206;6000;-59
2021/04/20 01:45:21;;;;;;;0.60;0.60;;;;;;;4.08;87.49;96959.87;29990;221;6004;-59
2021/04/20 01:45:52;;;;;;;0.60;0.60;;;;;;;4.07;87.27;96960.94;29990;229;6000;-59
2021/04/20 01:46:23;;;;;;;0.60;0.60;;;;;;;4.04;87.40;96956.88;29990;218;6005;-60
2021/04/20 01:46:58;;;;;;;0.70;0.70;;;;;;;4.04;87.41;96957.69;29990;285;6000;-60
2021/04/20 01:47:28;;;;;;;0.70;0.70;;;;;;;4.04;87.54;96956.88;29990;237;6005;-60
2021/04/20 01:48:00;;;;;;;0.60;0.60;;;;;;;4.05;87.51;96958.50;29990;303;6000;-59
2021/04/20 01:48:32;;;;;;;0.60;0.60;;;;;;;4.04;87.14;96960.37;29990;261;6007;-60
2021/04/20 01:49:03;;;;;;;0.60;0.60;;;;;;;4.02;87.15;96967.87;29991;216;6000;-59
2021/04/20 01:49:36;;;;;;;0.60;0.60;;;;;;;4.02;87.01;96964.38;29990;241;6004;-60
2021/04/20 01:50:08;;;;;;;0.60;0.60;;;;;;;3.99;87.06;96963.00;29990;202;6000;-59
2021/04/20 01:50:41;;;;;;;0.60;0.60;;;;;;;3.96;87.11;96965.38;29990;371;6004;-60
2021/04/20 01:51:13;;;;;;;0.60;0.60;;;;;;;3.92;87.12;96964.25;29991;306;6000;-60
2021/04/20 01:51:44;;;;;;;0.60;0.60;;;;;;;3.89;87.24;96967.41;29990;227;6004;-59
2021/04/20 01:52:16;;;;;;;0.60;0.60;;;;;;;3.88;87.26;96963.91;29991;272;6000;-59
2021/04/20 01:52:47;;;;;;;0.60;0.60;;;;;;;3.89;87.44;96965.53;29989;202;6004;-60
2021/04/20 01:53:18;;;;;;;0.60;0.60;;;;;;;3.88;87.38;96961.22;29991;226;6000;-59
2021/04/20 01:53:50;;;;;;;0.60;0.60;;;;;;;3.88;87.54;96963.09;29990;291;6005;-59
2021/04/20 01:54:22;;;;;;;0.60;0.60;;;;;;;3.86;87.61;96967.91;29990;328;6000;-58
2021/04/20 01:54:52;;;;;;;0.60;0.60;;;;;;;3.85;87.65;96958.22;29990;235;6005;-59
2021/04/20 01:55:23;;;;;;;0.60;0.60;;;;;;;3.83;87.63;96966.53;29990;328;6000;-59
2021/04/20 01:56:00;;;;;;;0.60;0.60;;;;;;;3.84;87.85;96968.16;29991;202;6005;-60
2021/04/20 01:56:32;;;;;;;0.60;0.60;;;;;;;3.84;87.94;96965.47;29991;197;6000;-59
2021/04/20 01:57:08;;;;;;;0.60;0.60;;;;;;;3.84;87.72;96965.47;29991;270;6004;-60
2021/04/20 01:57:41;;;;;;;0.60;0.60;;;;;;;3.85;87.91;96969.78;29991;235;6000;-56
2021/04/20 01:58:12;;;;;;;0.70;0.70;;;;;;;3.85;87.90;96964.41;29990;277;6004;-59
2021/04/20 01:58:45;;;;;;;0.60;0.60;;;;;;;3.87;87.73;96966.84;29991;237;6000;-60
2021/04/20 01:59:18;;;;;;;0.60;0.60;;;;;;;3.87;87.78;96973.03;29991;203;6004;-60
2021/04/20 01:59:49;;;;;;;0.60;0.60;;;;;;;3.86;87.73;96960.66;29991;224;6000;-60
2021/04/20 02:00:22;;;;;;;0.60;0.60;;;;;;;3.90;87.84;96967.16;29990;213;6005;-59
2021/04/20 02:00:54;;;;;;;0.60;0.60;;;;;;;3.91;87.92;96962.63;29990;253;6000;-59
2021/04/20 02:01:28;;;;;;;0.60;0.60;;;;;;;3.90;87.82;96967.16;29991;206;6005;-59
2021/04/20 02:01:59;;;;;;;0.60;0.60;;;;;;;3.89;87.78;96970.91;29991;227;6000;-59
2021/04/20 02:02:30;;;;;;;0.60;0.60;;;;;;;3.91;87.75;96966.09;29991;216;6000;-59
2021/04/20 02:03:01;;;;;;;0.60;0.60;;;;;;;3.97;87.80;96967.00;29990;216;6000;-59
2021/04/20 02:03:36;;;;;;;0.60;0.60;;;;;;;3.99;87.64;96971.06;29991;302;6004;-59
2021/04/20 02:04:08;;;;;;;0.70;0.70;;;;;;;4.00;87.59;96971.88;29990;236;6000;-57
2021/04/20 02:04:39;;;;;;;0.60;0.60;;;;;;;3.99;87.55;96960.31;29990;305;6004;-60
2021/04/20 02:05:11;;;;;;;0.70;0.70;;;;;;;4.01;87.93;96968.94;29991;199;6000;-60
2021/04/20 02:05:41;;;;;;;0.60;0.60;;;;;;;4.01;88.09;96968.94;29991;279;6004;-59
2021/04/20 02:06:14;;;;;;;0.60;0.60;;;;;;;4.01;88.08;96968.13;29990;214;6000;-59
2021/04/20 02:06:46;;;;;;;0.60;0.60;;;;;;;4.00;88.27;96970.00;29990;318;6004;-59
2021/04/20 02:07:17;;;;;;;0.60;0.60;;;;;;;4.00;88.18;96972.69;29990;229;6000;-58
2021/04/20 02:07:47;;;;;;;0.60;0.60;;;;;;;3.98;88.21;96969.44;29989;257;6005;-59
2021/04/20 02:08:18;;;;;;;0.60;0.60;;;;;;;4.00;88.39;96972.69;29990;327;6000;-59
2021/04/20 02:08:49;;;;;;;0.60;0.60;;;;;;;4.00;88.42;96970.00;29991;199;6005;-60
2021/04/20 02:09:21;;;;;;;0.60;0.60;;;;;;;4.00;88.43;96971.88;29990;213;6000;-60
2021/04/20 02:09:51;;;;;;;0.60;0.60;;;;;;;4.00;88.35;96970.00;29990;202;6005;-59
2021/04/20 02:10:24;;;;;;;0.60;0.60;;;;;;;4.00;88.31;96975.37;29990;286;6000;-55
2021/04/20 02:10:57;;;;;;;0.60;0.60;;;;;;;3.99;88.47;96971.06;29991;333;6004;-61
2021/04/20 02:11:28;;;;;;;0.60;0.60;;;;;;;4.00;88.46;96971.88;29990;203;6000;-59
2021/04/20 02:12:01;;;;;;;0.60;0.60;;;;;;;3.97;88.40;96970.50;29991;196;6004;-60
2021/04/20 02:12:32;;;;;;;0.60;0.60;;;;;;;3.97;88.45;96967.81;29990;253;6000;-59
2021/04/20 02:13:03;;;;;;;0.60;0.60;;;;;;;3.95;88.53;96969.94;29990;202;6004;-59
2021/04/20 02:13:35;;;;;;;1.35;1.25;;;;;;;3.94;88.71;96962.13;29990;240;6000;-59
2021/04/20 02:14:06;;;;;;;0.60;0.60;;;;;;;3.93;88.61;96966.69;29991;244;6004;-59
2021/04/20 02:14:37;;;;;;;0.60;0.60;;;;;;;3.93;88.41;96961.31;29990;198;6000;-59
2021/04/20 02:15:14;;;;;;;0.60;0.60;;;;;;;3.94;88.75;96965.63;29990;198;6004;-59
2021/04/20 02:15:46;;;;;;;0.80;0.80;;;;;;;3.92;88.41;96965.06;29990;249;6000;-58
2021/04/20 02:16:18;;;;;;;0.60;0.60;;;;;;;3.92;88.48;96961.56;29989;199;6005;-59
2021/04/20 02:16:49;;;;;;;0.60;0.60;;;;;;;3.91;88.45;96963.44;29990;251;6000;-58
2021/04/20 02:17:22;;;;;;;0.60;0.60;;;;;;;3.91;88.46;96958.06;29990;250;6009;-56
2021/04/20 02:17:54;;;;;;;0.60;0.60;;;;;;;3.90;88.48;96959.13;29990;197;6000;-60
2021/04/20 02:18:25;;;;;;;0.60;0.60;;;;;;;3.90;88.25;96964.47;29990;210;6004;-58
2021/04/20 02:19:04;;;;;;;0.60;0.60;;;;;;;3.90;88.26;96959.13;29989;230;6000;-59
2021/04/20 02:19:35;;;;;;;0.60;0.60;;;;;;;3.89;88.22;96954.81;29991;216;6004;-60
2021/04/20 02:20:12;;;;;;;0.60;0.60;;;;;;;3.89;88.20;96954.00;29990;246;6000;-59
2021/04/20 02:20:43;;;;;;;0.60;0.60;;;;;;;3.89;88.04;96960.19;29990;196;6004;-59
2021/04/20 02:21:14;;;;;;;0.60;0.60;;;;;;;3.88;87.65;96955.88;29991;233;6000;-59
2021/04/20 02:21:46;;;;;;;0.60;0.60;;;;;;;3.87;87.82;96956.94;29989;327;6004;-59
2021/04/20 02:22:18;;;;;;;0.60;0.60;;;;;;;3.84;87.93;96957.41;29991;198;6000;-59
2021/04/20 02:22:50;;;;;;;0.60;0.60;;;;;;;3.80;87.89;96956.31;29990;236;6004;-59
2021/04/20 02:23:21;;;;;;;0.60;0.60;;;;;;;3.76;87.88;96955.19;29990;330;6000;-59
2021/04/20 02:23:53;;;;;;;6.70;6.18;;;;;;;3.74;87.72;96951.13;29990;238;6005;-58
2021/04/20 02:24:24;;;;;;;0.60;0.60;;;;;;;3.71;88.08;96960.47;29991;255;6000;-59
2021/04/20 02:24:58;;;;;;;0.60;0.60;;;;;;;3.69;87.90;96960.72;29990;209;6010;-59
2021/04/20 02:25:32;;;;;;;0.80;0.80;;;;;;;3.65;87.74;96958.78;29990;311;6000;-58
2021/04/20 02:26:08;;;;;;;1.87;1.80;;;;;;;3.65;87.89;96956.09;29990;355;6004;-58
2021/04/20 02:26:40;;;;;;;0.60;0.60;;;;;;;3.66;87.83;96963.91;29990;291;6000;-58
2021/04/20 02:27:12;;;;;;;0.60;0.60;;;;;;;3.68;88.00;96964.47;29990;305;6004;-60
2021/04/20 02:27:44;;;;;;;0.60;0.60;;;;;;;3.71;87.62;96963.16;29990;231;6000;-59
2021/04/20 02:28:15;;;;;;;0.60;0.60;;;;;;;3.70;87.83;96958.84;29990;221;6004;-58
2021/04/20 02:28:46;;;;;;;0.60;0.60;;;;;;;3.70;87.53;96956.97;29990;266;6000;-59
2021/04/20 02:29:16;;;;;;;0.60;0.60;;;;;;;3.67;87.50;96957.47;29990;372;6004;-59
2021/04/20 02:29:47;;;;;;;0.60;0.60;;;;;;;3.69;87.49;96959.91;29990;219;6000;-58
2021/04/20 02:30:19;;;;;;;0.60;0.60;;;;;;;3.69;87.58;96965.28;29990;198;6004;-58
2021/04/20 02:30:49;;;;;;;0.60;0.60;;;;;;;3.70;87.36;96962.34;29990;202;6001;-59
2021/04/20 02:31:20;;;;;;;0.60;0.60;;;;;;;3.73;87.27;96960.22;29991;285;6005;-59
2021/04/20 02:31:51;;;;;;;0.60;0.60;;;;;;;3.74;87.23;96962.66;29989;272;6000;-60
2021/04/20 02:32:21;;;;;;;0.70;0.70;;;;;;;3.76;87.18;96965.09;29990;296;6005;-59
2021/04/20 02:32:55;;;;;;;0.70;0.70;;;;;;;3.77;86.96;96966.72;29990;310;6000;-60
2021/04/20 02:33:25;;;;;;;0.60;0.60;;;;;;;3.77;86.90;96964.06;29990;251;6004;-58
2021/04/20 02:33:56;;;;;;;0.60;0.60;;;;;;;3.77;86.92;96966.72;29991;311;6000;-59
2021/04/20 02:34:28;;;;;;;0.60;0.60;;;;;;;3.77;86.99;96961.38;29990;205;6004;-59
2021/04/20 02:35:00;;;;;;;0.60;0.60;;;;;;;3.75;86.80;96963.47;29990;188;6006;-59
2021/04/20 02:35:31;;;;;;;0.60;0.60;;;;;;;3.74;86.64;96962.66;29990;289;6004;-58
2021/04/20 02:36:04;;;;;;;0.70;0.70;;;;;;;3.72;86.70;96962.09;29990;233;6000;-60
2021/04/20 02:36:43;;;;;;;0.60;0.60;;;;;;;3.71;86.89;96957.78;29989;330;6004;-59